Time;durP1;ratioP1;P1;durP2;ratioP2;P2;SDS_P1;SDS_P2;PMS_P1;PMS_P2;Temp;Humidity;BMP_temperature;BMP_pressure;BME280_temperature;BME280_humidity;BME280_pressure;Samples;Min_cycle;Max_cycle;Signal;HPM_P1;HPM_P2
2021/05/05 00:00:32;;;;;;;7.20;5.30;;;;;;;10.03;70.04;99071.41;104361;1099;77308;-63
2021/05/05 00:02:54;;;;;;;7.30;5.60;;;;;;;9.92;70.06;99072.94;104304;1099;78701;-62
2021/05/05 00:04:59;;;;;;;8.20;5.90;;;;;;;9.84;70.15;99067.80;104312;1098;79838;-67
2021/05/05 00:07:04;;;;;;;7.60;5.90;;;;;;;9.81;70.36;99062.84;104297;1104;79045;-65
2021/05/05 00:09:09;;;;;;;7.20;6.00;;;;;;;9.83;70.32;99055.34;104260;1104;77958;-67
2021/05/05 00:11:14;;;;;;;9.20;6.00;;;;;;;9.80;70.41;99057.67;104251;1104;79289;-62
2021/05/05 00:13:19;;;;;;;8.20;5.80;;;;;;;9.78;70.33;99049.78;104348;1099;77845;-64
2021/05/05 00:15:26;;;;;;;8.00;5.90;;;;;;;9.76;70.45;99051.88;104306;1104;78527;-62
2021/05/05 00:17:35;;;;;;;10.30;6.20;;;;;;;9.73;70.57;99048.78;104318;1104;78584;-62
2021/05/05 00:19:40;;;;;;;7.80;6.90;;;;;;;9.70;70.77;99036.56;104315;1104;77213;-66
2021/05/05 00:21:46;;;;;;;6.80;5.80;;;;;;;9.70;70.91;99050.04;104320;1104;78607;-66
2021/05/05 00:23:51;;;;;;;9.00;6.20;;;;;;;9.64;71.08;99042.81;104318;1105;78291;-68
2021/05/05 00:25:56;;;;;;;7.20;6.20;;;;;;;9.60;70.95;99044.30;104268;1104;78497;-66
2021/05/05 00:28:01;;;;;;;7.20;6.00;;;;;;;9.57;71.37;99052.82;104350;1099;78764;-67
2021/05/05 00:30:12;;;;;;;7.60;6.30;;;;;;;9.54;71.28;99049.72;104318;1105;78554;-66
2021/05/05 00:32:17;;;;;;;7.30;5.90;;;;;;;9.50;71.17;99049.34;104338;1104;79272;-66
2021/05/05 00:34:25;;;;;;;9.00;5.60;;;;;;;9.47;71.56;99041.69;104285;1104;78517;-64
2021/05/05 00:36:30;;;;;;;8.40;5.50;;;;;;;9.40;71.53;99040.88;104330;1104;79303;-62
2021/05/05 00:38:35;;;;;;;7.50;6.00;;;;;;;9.37;71.68;99036.74;104297;1104;78993;-63
2021/05/05 00:40:40;;;;;;;7.20;5.70;;;;;;;9.38;71.55;99040.27;104321;1098;78818;-63
2021/05/05 00:42:49;;;;;;;6.90;5.80;;;;;;;9.32;71.56;99043.81;104335;1104;77682;-63
2021/05/05 00:44:59;;;;;;;7.70;6.30;;;;;;;9.26;71.45;99037.41;104327;1104;77425;-63
2021/05/05 00:47:08;;;;;;;6.10;5.20;;;;;;;9.25;71.64;99037.64;104290;1103;77869;-63
2021/05/05 00:49:13;;;;;;;6.20;5.40;;;;;;;9.26;71.78;99036.58;104330;1104;78577;-63
2021/05/05 00:51:18;;;;;;;7.30;5.30;;;;;;;9.27;71.78;99035.55;104346;1104;78523;-63
2021/05/05 00:53:25;;;;;;;6.10;4.50;;;;;;;9.26;71.88;99039.28;104323;1104;78170;-63
2021/05/05 00:55:31;;;;;;;7.90;4.70;;;;;;;9.32;71.82;99038.42;104316;1104;76913;-66
2021/05/05 00:57:37;;;;;;;6.80;4.10;;;;;;;9.36;71.87;99039.66;104333;1104;77452;-66
2021/05/05 00:59:45;;;;;;;5.30;4.20;;;;;;;9.43;72.08;99035.05;104353;1104;77459;-68
2021/05/05 01:01:53;;;;;;;7.40;3.50;;;;;;;9.51;72.01;99034.80;104311;1104;78174;-69
2021/05/05 01:03:58;;;;;;;5.90;3.90;;;;;;;9.55;71.93;99036.04;104338;1099;77692;-69
2021/05/05 01:06:05;;;;;;;4.20;3.40;;;;;;;9.62;71.71;99035.98;104298;1104;77488;-63
2021/05/05 01:08:11;;;;;;;3.70;3.20;;;;;;;9.67;71.72;99038.88;104296;1104;79056;-64
2021/05/05 01:10:16;;;;;;;4.50;3.20;;;;;;;9.71;71.82;99042.78;104311;1104;78416;-63
2021/05/05 01:12:22;;;;;;;4.20;3.40;;;;;;;9.74;71.77;99045.88;104298;1104;77528;-63
2021/05/05 01:14:27;;;;;;;4.00;3.10;;;;;;;9.75;71.87;99036.73;104296;1098;77832;-67
2021/05/05 01:16:35;;;;;;;5.20;3.30;;;;;;;9.80;71.81;99038.80;104279;1104;78766;-67
2021/05/05 01:18:40;;;;;;;4.60;3.10;;;;;;;9.85;71.76;99029.01;104273;1104;79429;-68
2021/05/05 01:20:46;;;;;;;4.40;3.00;;;;;;;9.90;71.67;99031.88;104315;1104;77707;-70
2021/05/05 01:22:51;;;;;;;6.30;3.20;;;;;;;9.94;71.68;99037.66;104305;1104;78556;-69
2021/05/05 01:24:56;;;;;;;4.70;3.10;;;;;;;9.94;71.38;99041.16;104297;1104;78451;-70
2021/05/05 01:27:01;;;;;;;3.30;2.70;;;;;;;9.99;71.53;99044.06;104301;1104;77096;-70
2021/05/05 01:29:10;;;;;;;4.20;3.20;;;;;;;10.02;71.48;99043.63;104268;1099;78341;-68
2021/05/05 01:31:17;;;;;;;6.20;3.30;;;;;;;10.02;71.44;99040.09;104328;1100;77383;-67
2021/05/05 01:33:23;;;;;;;4.30;2.90;;;;;;;9.98;71.32;99038.86;104285;1104;77893;-68
2021/05/05 01:35:28;;;;;;;3.70;3.30;;;;;;;9.95;71.42;99050.09;104238;1104;79343;-63
2021/05/05 01:37:34;;;;;;;7.50;3.80;;;;;;;9.95;71.68;99033.91;104323;1099;77722;-63
2021/05/05 01:39:41;;;;;;;4.90;3.30;;;;;;;9.94;71.60;99037.66;104323;1099;79164;-69
2021/05/05 01:41:47;;;;;;;4.40;3.30;;;;;;;9.92;71.46;99037.03;104313;1104;77725;-68
2021/05/05 01:43:52;;;;;;;4.10;3.50;;;;;;;9.92;71.59;99039.73;104312;1098;79142;-69
2021/05/05 01:45:58;;;;;;;4.10;3.40;;;;;;;9.92;71.40;99034.34;104238;1104;78283;-67
2021/05/05 01:48:08;;;;;;;5.30;3.60;;;;;;;9.89;71.41;99034.77;104270;1099;79644;-69
2021/05/05 01:50:16;;;;;;;3.80;3.40;;;;;;;9.88;71.45;99039.36;104288;1105;79527;-63
2021/05/05 01:52:22;;;;;;;5.70;2.90;;;;;;;9.84;71.40;99032.73;104306;1098;78420;-63
2021/05/05 01:54:27;;;;;;;4.40;3.40;;;;;;;9.85;71.50;99034.41;104310;1099;79339;-66
2021/05/05 01:56:32;;;;;;;3.70;2.90;;;;;;;9.83;71.66;99027.58;104304;1104;78085;-68
2021/05/05 01:58:38;;;;;;;3.80;3.20;;;;;;;9.81;71.44;99019.69;104339;1104;79581;-68
2021/05/05 02:00:44;;;;;;;4.20;3.20;;;;;;;9.77;71.58;99021.18;104311;1104;77424;-67
2021/05/05 02:02:49;;;;;;;4.50;3.60;;;;;;;9.75;71.58;99023.24;104286;1104;78544;-67
2021/05/05 02:04:54;;;;;;;5.10;3.50;;;;;;;9.74;71.83;99015.39;104312;1099;77715;-64
2021/05/05 02:06:59;;;;;;;4.70;3.40;;;;;;;9.72;71.72;99028.27;104296;1104;77249;-64
2021/05/05 02:09:08;;;;;;;5.00;3.20;;;;;;;9.74;71.59;99023.48;104309;1104;80068;-64
2021/05/05 02:11:12;;;;;;;4.70;4.00;;;;;;;9.76;71.88;99022.21;104288;1099;78169;-64
2021/05/05 02:13:18;;;;;;;3.60;3.20;;;;;;;9.72;71.88;99026.41;104270;1105;78860;-63
2021/05/05 02:15:25;;;;;;;5.60;3.40;;;;;;;9.68;71.60;99024.34;104282;1104;77442;-63
2021/05/05 02:17:30;;;;;;;4.20;3.20;;;;;;;9.66;71.70;99015.65;104289;1104;78917;-64
2021/05/05 02:19:35;;;;;;;4.90;3.50;;;;;;;9.60;71.75;99016.52;104270;1104;78678;-64
2021/05/05 02:21:40;;;;;;;5.10;3.70;;;;;;;9.55;71.78;99019.86;104298;1104;78859;-64
2021/05/05 02:23:46;;;;;;;7.00;3.60;;;;;;;9.50;71.80;99014.30;104314;1104;77289;-64
2021/05/05 02:25:51;;;;;;;6.20;3.70;;;;;;;9.50;71.92;99012.41;104285;1104;76909;-67
2021/05/05 02:27:56;;;;;;;5.30;3.70;;;;;;;9.49;71.97;99008.08;104293;1099;78542;-68
2021/05/05 02:30:01;;;;;;;5.10;3.90;;;;;;;9.45;72.03;99011.40;104289;1099;78253;-64
2021/05/05 02:32:11;;;;;;;4.00;3.20;;;;;;;9.43;72.18;99018.88;104292;1105;78560;-64
2021/05/05 02:34:19;;;;;;;5.60;3.70;;;;;;;9.42;72.34;99017.25;104315;1104;76981;-64
2021/05/05 02:36:24;;;;;;;3.80;2.80;;;;;;;9.40;72.10;99017.45;104365;1098;76950;-71
2021/05/05 02:38:29;;;;;;;4.40;3.20;;;;;;;9.39;72.44;99023.07;104275;1104;78040;-69
2021/05/05 02:40:37;;;;;;;5.30;3.80;;;;;;;9.41;72.43;99013.72;104310;1104;77644;-70
2021/05/05 02:42:42;;;;;;;4.10;3.40;;;;;;;9.41;72.20;99015.59;104315;1104;78264;-69
2021/05/05 02:44:49;;;;;;;4.40;3.30;;;;;;;9.38;72.30;99018.70;104342;1104;77578;-65
2021/05/05 02:46:54;;;;;;;4.60;3.30;;;;;;;9.32;72.35;99023.09;104304;1104;78300;-65
2021/05/05 02:48:59;;;;;;;5.50;3.90;;;;;;;9.27;72.16;99011.30;104307;1099;78230;-65
2021/05/05 02:51:05;;;;;;;4.70;3.60;;;;;;;9.23;72.05;99015.48;104275;1099;78288;-71
2021/05/05 02:53:10;;;;;;;4.00;3.20;;;;;;;9.18;72.21;99020.66;104315;1104;79091;-69
2021/05/05 02:55:16;;;;;;;4.10;3.30;;;;;;;9.15;72.16;99013.00;104285;1104;77920;-64
2021/05/05 02:57:21;;;;;;;5.10;3.40;;;;;;;9.11;72.25;99012.63;104314;1104;78003;-65
2021/05/05 02:59:26;;;;;;;4.70;3.40;;;;;;;9.11;72.40;99014.48;104294;1104;78851;-66
2021/05/05 03:01:31;;;;;;;5.30;3.80;;;;;;;9.10;72.50;99013.66;104298;1104;77585;-64
2021/05/05 03:03:37;;;;;;;4.80;3.50;;;;;;;9.12;72.46;99010.77;104279;1104;78002;-64
2021/05/05 03:05:42;;;;;;;3.90;3.40;;;;;;;9.06;72.68;99009.75;104295;1104;78587;-64
2021/05/05 03:07:50;;;;;;;5.80;3.60;;;;;;;9.03;72.51;98998.56;104315;1104;78092;-64
2021/05/05 03:09:55;;;;;;;4.30;3.40;;;;;;;9.05;72.44;99007.25;104266;1099;78623;-70
2021/05/05 03:12:04;;;;;;;4.90;3.80;;;;;;;9.06;72.46;98998.14;104296;1104;78585;-69
2021/05/05 03:14:09;;;;;;;5.00;3.70;;;;;;;9.10;73.42;99012.82;104350;1104;76670;-68
2021/05/05 03:16:17;;;;;;;6.20;3.80;;;;;;;9.12;72.91;99013.45;104355;1098;77180;-64
2021/05/05 03:18:26;;;;;;;4.80;3.40;;;;;;;9.13;72.99;99009.70;104281;1104;78302;-64
2021/05/05 03:20:32;;;;;;;4.60;3.50;;;;;;;9.13;73.08;99007.01;104310;1099;77029;-70
2021/05/05 03:22:38;;;;;;;4.30;3.20;;;;;;;9.18;72.93;99010.72;104274;1104;77427;-70
2021/05/05 03:24:43;;;;;;;5.70;3.50;;;;;;;9.19;72.80;99003.47;104285;1104;78174;-64
2021/05/05 03:26:51;;;;;;;4.50;3.70;;;;;;;9.25;72.82;99002.61;104313;1104;78893;-65
2021/05/05 03:28:59;;;;;;;4.20;3.40;;;;;;;9.37;72.89;99008.95;104295;1104;78118;-63
2021/05/05 03:31:04;;;;;;;3.60;3.00;;;;;;;9.43;72.71;99008.10;104295;1104;78153;-63
2021/05/05 03:33:10;;;;;;;5.40;3.90;;;;;;;9.49;72.69;99008.08;104309;1099;77321;-65
2021/05/05 03:35:18;;;;;;;4.10;3.40;;;;;;;9.55;72.83;99016.34;104296;1104;76858;-69
2021/05/05 03:37:23;;;;;;;4.00;3.30;;;;;;;9.65;72.63;99017.52;104319;1105;79156;-69
2021/05/05 03:39:28;;;;;;;5.90;3.50;;;;;;;9.76;72.61;99010.59;104295;1104;77883;-69
2021/05/05 03:41:33;;;;;;;4.30;3.50;;;;;;;9.90;72.50;99018.38;104299;1103;78910;-69
2021/05/05 03:43:38;;;;;;;3.80;3.40;;;;;;;10.38;72.90;99023.22;104293;1104;79459;-69
2021/05/05 03:45:46;;;;;;;4.30;3.20;;;;;;;11.61;72.63;99014.72;104273;1104;76854;-69
2021/05/05 03:47:51;;;;;;;4.30;3.40;;;;;;;12.05;70.70;99020.75;104287;1104;76707;-69
2021/05/05 03:49:57;;;;;;;4.40;3.20;;;;;;;11.81;70.09;99022.58;104330;1098;77715;-69
2021/05/05 03:52:02;;;;;;;3.90;3.20;;;;;;;11.53;69.73;99017.74;104324;1104;78321;-68
2021/05/05 03:54:11;;;;;;;6.50;3.40;;;;;;;11.33;69.82;99030.69;104299;1104;77297;-70
2021/05/05 03:56:16;;;;;;;4.70;3.20;;;;;;;11.19;69.63;99021.92;104320;1104;77677;-64
2021/05/05 03:58:21;;;;;;;4.70;3.40;;;;;;;11.03;69.62;99025.23;104319;1104;78614;-66
2021/05/05 04:00:27;;;;;;;4.10;3.40;;;;;;;10.88;69.53;99029.34;104323;1104;76997;-70
2021/05/05 04:02:32;;;;;;;4.20;3.00;;;;;;;10.81;69.49;99039.41;104324;1104;77116;-70
2021/05/05 04:04:37;;;;;;;4.30;3.20;;;;;;;11.10;70.64;99031.38;104295;1105;77595;-65
2021/05/05 04:06:42;;;;;;;3.70;3.20;;;;;;;12.91;70.75;99026.33;104316;1100;77745;-64
2021/05/05 04:08:47;;;;;;;3.70;2.80;;;;;;;14.39;69.07;99015.36;104312;1104;79623;-64
2021/05/05 04:10:52;;;;;;;3.90;2.80;;;;;;;15.73;67.06;99009.30;104361;1104;79260;-69
2021/05/05 04:12:57;;;;;;;4.70;3.10;;;;;;;16.33;65.73;99013.66;104335;1104;77534;-69
2021/05/05 04:15:02;;;;;;;3.50;2.80;;;;;;;17.10;63.87;99020.22;104337;1098;78939;-70
2021/05/05 04:17:08;;;;;;;4.20;2.80;;;;;;;17.17;62.52;99025.42;104315;1104;77226;-70
2021/05/05 04:19:13;;;;;;;5.10;2.90;;;;;;;17.03;61.54;99029.73;104321;1104;77635;-70
2021/05/05 04:21:18;;;;;;;4.20;2.70;;;;;;;17.08;60.66;99035.22;104311;1099;78475;-65
2021/05/05 04:23:26;;;;;;;3.00;2.30;;;;;;;17.05;59.93;99027.55;104324;1104;77812;-66
2021/05/05 04:25:32;;;;;;;4.40;2.80;;;;;;;17.26;59.80;99037.48;104348;1104;77110;-64
2021/05/05 04:27:42;;;;;;;2.50;2.10;;;;;;;17.88;58.67;99040.19;104322;1105;78103;-65
2021/05/05 04:29:50;;;;;;;3.40;2.50;;;;;;;18.88;58.39;99024.94;104308;1104;77915;-65
2021/05/05 04:31:57;;;;;;;4.00;2.50;;;;;;;19.94;57.04;99022.61;104335;1105;78104;-66
2021/05/05 04:34:03;;;;;;;2.70;2.00;;;;;;;20.93;54.63;99015.78;104311;1104;77844;-66
2021/05/05 04:36:11;;;;;;;4.30;2.20;;;;;;;21.68;53.29;99019.60;104330;1104;78664;-71
2021/05/05 04:38:19;;;;;;;3.40;2.20;;;;;;;21.59;52.41;99029.61;104311;1104;78466;-70
2021/05/05 04:40:25;;;;;;;2.80;2.10;;;;;;;22.62;51.28;99025.09;104302;1104;78218;-66
2021/05/05 04:42:30;;;;;;;3.10;2.00;;;;;;;23.11;49.64;99013.48;104337;1099;78399;-66
2021/05/05 04:44:36;;;;;;;3.00;2.20;;;;;;;23.42;47.26;99015.38;104328;1099;77448;-66
2021/05/05 04:46:41;;;;;;;2.70;1.70;;;;;;;23.94;46.01;99024.19;104338;1098;78092;-66
2021/05/05 04:48:50;;;;;;;3.10;2.00;;;;;;;24.63;45.05;99022.84;104267;1104;78541;-66
2021/05/05 04:50:57;;;;;;;2.30;1.70;;;;;;;25.24;43.75;99017.34;104316;1099;77873;-71
2021/05/05 04:53:03;;;;;;;2.60;1.80;;;;;;;25.85;42.60;99018.36;104307;1099;78859;-71
2021/05/05 04:55:11;;;;;;;2.60;1.80;;;;;;;25.81;41.11;99022.93;104316;1104;77923;-71
2021/05/05 04:57:16;;;;;;;3.20;1.90;;;;;;;26.47;40.61;99021.70;104327;1105;78685;-72
2021/05/05 04:59:25;;;;;;;3.40;1.80;;;;;;;27.06;38.95;99017.19;104325;1104;78147;-70
2021/05/05 05:01:31;;;;;;;3.80;1.90;;;;;;;27.05;38.14;99015.58;104319;1099;78988;-71
2021/05/05 05:03:36;;;;;;;4.00;1.90;;;;;;;27.67;37.62;99009.44;104336;1099;79733;-71
2021/05/05 05:05:41;;;;;;;3.10;2.00;;;;;;;27.43;36.90;99001.75;104321;1104;78036;-66
2021/05/05 05:07:46;;;;;;;2.40;2.10;;;;;;;26.29;36.75;99009.80;104343;1099;78016;-66
2021/05/05 05:09:51;;;;;;;3.90;1.90;;;;;;;25.71;37.10;99009.41;104321;1099;77328;-67
2021/05/05 05:11:59;;;;;;;2.50;1.60;;;;;;;24.93;36.98;99002.73;104281;1104;78122;-66
2021/05/05 05:14:08;;;;;;;2.10;1.70;;;;;;;24.33;37.33;99005.09;104285;1104;78911;-66
2021/05/05 05:16:13;;;;;;;2.10;1.70;;;;;;;23.96;38.06;99003.44;104287;1104;78905;-66
2021/05/05 05:18:18;;;;;;;2.30;1.80;;;;;;;24.36;37.57;99009.16;104285;1104;78697;-64
2021/05/05 05:20:23;;;;;;;2.20;1.60;;;;;;;25.04;38.25;99006.04;104302;1104;78803;-70
2021/05/05 05:22:32;;;;;;;5.20;1.90;;;;;;;25.98;36.77;99014.66;104331;1104;79332;-71
2021/05/05 05:24:37;;;;;;;3.60;1.80;;;;;;;26.58;35.76;99011.91;104274;1104;78157;-66
2021/05/05 05:26:42;;;;;;;2.50;1.60;;;;;;;26.94;35.35;99008.77;104335;1104;78367;-66
2021/05/05 05:28:50;;;;;;;3.00;1.50;;;;;;;27.49;34.73;98987.37;104228;1099;78803;-66
2021/05/05 05:30:55;;;;;;;2.60;1.60;;;;;;;27.80;33.98;98992.54;104318;1105;77411;-71
2021/05/05 05:33:00;;;;;;;1.50;1.40;;;;;;;28.55;33.34;99001.77;104268;1103;79057;-71
2021/05/05 05:35:08;;;;;;;2.10;1.70;;;;;;;28.68;33.00;99004.28;104262;1104;77393;-73
2021/05/05 05:37:13;;;;;;;2.90;1.60;;;;;;;28.61;32.01;99012.34;104319;1100;78454;-71
2021/05/05 05:39:22;;;;;;;2.70;1.60;;;;;;;29.07;32.06;99005.66;104293;1105;78628;-71
2021/05/05 05:41:28;;;;;;;5.00;1.70;;;;;;;29.28;30.78;99010.37;104276;1104;76873;-66
2021/05/05 05:43:33;;;;;;;2.70;1.50;;;;;;;29.29;31.09;99007.22;104287;1104;77192;-66
2021/05/05 05:45:38;;;;;;;5.80;1.80;;;;;;;27.92;30.02;99017.62;104333;1099;78005;-66
2021/05/05 05:47:43;;;;;;;3.80;1.60;;;;;;;26.37;30.86;99011.75;104318;1104;79767;-66
2021/05/05 05:49:48;;;;;;;1.50;1.20;;;;;;;24.87;31.86;99016.99;104308;1098;78248;-72
2021/05/05 05:51:54;;;;;;;2.20;1.40;;;;;;;23.60;32.80;99019.13;104274;1104;79829;-72
2021/05/05 05:54:00;;;;;;;2.40;1.80;;;;;;;22.96;34.14;99022.05;104292;1104;77738;-72
2021/05/05 05:56:06;;;;;;;2.70;1.50;;;;;;;22.30;35.11;99026.69;104281;1104;78883;-72
2021/05/05 05:58:14;;;;;;;3.30;1.70;;;;;;;22.14;35.84;99033.55;104286;1104;78445;-71
2021/05/05 06:00:23;;;;;;;3.20;1.40;;;;;;;23.07;35.66;99023.49;104268;1104;77031;-67
2021/05/05 06:02:28;;;;;;;4.10;1.60;;;;;;;23.96;35.40;99024.69;104318;1104;77053;-67
2021/05/05 06:04:33;;;;;;;2.40;1.70;;;;;;;24.00;35.39;99022.95;104317;1104;79577;-72
2021/05/05 06:06:38;;;;;;;2.50;1.80;;;;;;;23.65;34.86;99018.22;104284;1104;78649;-71
2021/05/05 06:08:43;;;;;;;2.40;1.80;;;;;;;23.84;35.41;99027.97;104299;1100;78399;-71
2021/05/05 06:10:49;;;;;;;2.90;1.90;;;;;;;24.05;35.13;99023.65;104267;1104;79106;-71
2021/05/05 06:12:54;;;;;;;2.60;1.90;;;;;;;25.30;35.09;99008.92;104302;1104;77376;-71
2021/05/05 06:14:59;;;;;;;2.70;1.90;;;;;;;26.09;34.41;99009.62;104297;1104;77248;-70
2021/05/05 06:17:05;;;;;;;2.60;1.60;;;;;;;26.05;33.56;99014.98;104305;1104;78399;-71
2021/05/05 06:19:11;;;;;;;1.70;1.40;;;;;;;26.57;33.69;99003.91;104347;1099;77018;-71
2021/05/05 06:21:16;;;;;;;2.40;1.50;;;;;;;27.01;32.76;99009.06;104276;1104;77976;-71
2021/05/05 06:23:21;;;;;;;2.10;1.30;;;;;;;27.21;32.44;99001.98;104291;1104;78500;-72
2021/05/05 06:25:26;;;;;;;2.90;1.50;;;;;;;27.03;31.89;99001.22;104348;1099;77871;-66
2021/05/05 06:27:34;;;;;;;3.90;1.90;;;;;;;27.11;31.94;98994.04;104302;1104;79745;-66
2021/05/05 06:29:39;;;;;;;2.50;1.60;;;;;;;26.08;31.84;99006.03;104300;1105;77908;-71
2021/05/05 06:31:48;;;;;;;1.60;1.40;;;;;;;24.91;33.21;98995.91;104271;1104;78358;-71
2021/05/05 06:33:53;;;;;;;3.50;1.50;;;;;;;23.82;33.75;99005.41;104349;1098;77854;-66
2021/05/05 06:36:02;;;;;;;3.90;1.50;;;;;;;23.23;34.29;99005.54;104268;1105;76862;-68
2021/05/05 06:38:11;;;;;;;2.70;1.90;;;;;;;22.68;34.60;98997.21;104304;1105;78349;-68
2021/05/05 06:40:19;;;;;;;3.00;1.80;;;;;;;22.30;35.22;98998.38;104293;1104;77835;-65
2021/05/05 06:42:24;;;;;;;2.20;1.40;;;;;;;22.76;35.94;98996.52;104311;1104;77158;-65
2021/05/05 06:44:29;;;;;;;3.00;1.90;;;;;;;22.76;35.73;98996.52;104327;1104;78775;-69
2021/05/05 06:46:35;;;;;;;2.80;1.60;;;;;;;22.33;35.96;99000.54;104305;1105;79210;-69
2021/05/05 06:48:40;;;;;;;1.90;1.50;;;;;;;21.81;35.79;99012.55;104294;1099;79516;-68
2021/05/05 06:50:46;;;;;;;2.50;1.50;;;;;;;21.08;36.67;99018.42;104293;1099;78835;-69
2021/05/05 06:52:51;;;;;;;4.00;1.50;;;;;;;20.51;37.33;99001.94;104325;1104;77411;-69
2021/05/05 06:54:56;;;;;;;2.40;1.40;;;;;;;19.76;37.97;99004.09;104292;1104;78162;-69
2021/05/05 06:57:01;;;;;;;1.90;1.50;;;;;;;19.36;38.63;99007.02;104304;1104;79118;-68
2021/05/05 06:59:07;;;;;;;2.50;1.60;;;;;;;19.07;39.30;98995.88;104296;1104;78509;-68
2021/05/05 07:01:13;;;;;;;1.50;1.30;;;;;;;18.85;39.79;99004.42;104307;1099;77491;-68
2021/05/05 07:03:18;;;;;;;2.70;1.60;;;;;;;18.65;40.05;98998.97;104299;1104;80439;-68
2021/05/05 07:05:26;;;;;;;2.60;1.40;;;;;;;18.34;40.79;99015.66;104324;1104;77257;-66
2021/05/05 07:07:34;;;;;;;3.80;1.50;;;;;;;18.03;41.36;99017.55;104300;1104;79648;-65
2021/05/05 07:09:39;;;;;;;3.40;1.50;;;;;;;17.82;41.86;99016.70;104311;1104;77711;-65
2021/05/05 07:11:45;;;;;;;2.30;1.50;;;;;;;17.61;41.91;99026.73;104309;1104;77574;-66
2021/05/05 07:13:50;;;;;;;5.00;1.70;;;;;;;17.40;42.54;99026.89;104316;1100;76821;-65
2021/05/05 07:15:55;;;;;;;1.80;1.40;;;;;;;17.21;43.08;99032.00;104304;1104;78306;-66
2021/05/05 07:18:00;;;;;;;2.70;1.50;;;;;;;16.89;43.22;99025.83;104300;1105;77413;-65
2021/05/05 07:20:09;;;;;;;3.60;1.90;;;;;;;16.61;43.55;99021.55;104290;1099;79654;-64
2021/05/05 07:22:14;;;;;;;4.90;2.00;;;;;;;16.39;43.56;99012.63;104334;1105;78689;-65
2021/05/05 07:24:23;;;;;;;142.50;118.60;;;;;;;16.26;43.79;99016.59;104299;1104;78474;-66
2021/05/05 07:26:28;;;;;;;40.30;33.50;;;;;;;16.18;43.89;99016.27;104326;1099;77255;-65
2021/05/05 07:28:33;;;;;;;7.20;5.30;;;;;;;16.20;44.07;99000.48;104294;1104;77684;-65
2021/05/05 07:30:39;;;;;;;3.80;2.10;;;;;;;16.40;44.35;98986.99;104312;1104;78524;-68
2021/05/05 07:32:44;;;;;;;3.70;1.80;;;;;;;16.88;44.12;98988.71;104306;1104;77795;-65
2021/05/05 07:34:49;;;;;;;5.00;1.90;;;;;;;17.90;44.24;98982.55;104287;1104;79223;-65
2021/05/05 07:37:01;;;;;;;6.20;1.90;;;;;;;18.91;43.33;98980.60;104291;1104;78825;-65
2021/05/05 07:39:21;;;;;;;5.10;1.80;;;;;;;20.53;42.07;98981.34;104272;1104;79241;-69
2021/05/05 07:46:15;;;;;;;2.90;1.30;;;;;;;23.41;37.22;98991.68;104248;1104;78881;-64
2021/05/05 07:48:26;;;;;;;4.10;1.60;;;;;;;23.01;36.13;98992.47;104308;1105;78768;-63
2021/05/05 07:50:32;;;;;;;5.40;1.50;;;;;;;22.12;35.84;98993.70;104323;1104;78570;-65
2021/05/05 07:52:37;;;;;;;3.00;1.40;;;;;;;21.49;36.79;98999.52;104276;1104;78729;-63
2021/05/05 07:54:42;;;;;;;4.30;1.40;;;;;;;21.15;36.73;98988.66;104341;1099;78772;-63
2021/05/05 07:56:47;;;;;;;3.70;1.60;;;;;;;20.81;36.52;98998.91;104331;1104;78276;-63
2021/05/05 07:58:53;;;;;;;5.40;1.50;;;;;;;20.62;37.34;98994.43;104321;1104;78285;-63
2021/05/05 08:00:58;;;;;;;4.00;1.30;;;;;;;20.46;37.75;98993.75;104280;1104;78542;-69
2021/05/05 08:03:03;;;;;;;2.60;1.10;;;;;;;21.08;38.21;98990.95;104329;1104;78442;-70
2021/05/05 08:05:09;;;;;;;2.40;1.10;;;;;;;22.52;38.08;98986.73;104321;1099;78100;-64
2021/05/05 08:07:15;;;;;;;3.10;1.30;;;;;;;23.55;36.74;98972.37;104309;1097;76983;-64
2021/05/05 08:09:22;;;;;;;3.50;1.30;;;;;;;24.33;34.63;98990.46;104314;1105;78534;-63
2021/05/05 08:11:28;;;;;;;2.30;1.10;;;;;;;24.42;34.71;98980.30;104324;1098;77515;-70
2021/05/05 08:13:33;;;;;;;2.40;1.10;;;;;;;25.28;34.30;98983.53;104318;1104;77073;-70
2021/05/05 08:15:38;;;;;;;4.30;1.40;;;;;;;25.61;32.34;98995.86;104311;1104;79186;-69
2021/05/05 08:17:43;;;;;;;2.80;1.50;;;;;;;25.59;31.89;98996.20;104306;1104;78227;-70
2021/05/05 08:19:48;;;;;;;2.40;1.10;;;;;;;24.97;31.10;98984.38;104297;1104;78358;-68
2021/05/05 08:21:53;;;;;;;3.00;1.00;;;;;;;24.47;30.90;98986.52;104297;1104;77821;-67
2021/05/05 08:23:59;;;;;;;2.00;1.10;;;;;;;24.28;31.31;98979.55;104280;1104;77899;-68
2021/05/05 08:26:05;;;;;;;2.00;1.30;;;;;;;23.88;31.55;98993.14;104336;1099;78789;-65
2021/05/05 08:28:11;;;;;;;2.60;1.10;;;;;;;23.16;30.60;98983.89;104310;1104;77136;-65
2021/05/05 08:30:19;;;;;;;4.70;1.40;;;;;;;22.27;31.77;98998.98;104293;1099;78013;-68
2021/05/05 08:32:27;;;;;;;2.90;1.10;;;;;;;21.76;32.57;98996.95;104325;1104;77275;-68
2021/05/05 08:34:32;;;;;;;3.00;1.10;;;;;;;21.35;33.88;98989.53;104320;1104;76952;-67
2021/05/05 08:36:38;;;;;;;2.90;1.00;;;;;;;21.11;34.02;98992.30;104279;1104;78999;-66
2021/05/05 08:38:43;;;;;;;4.40;1.50;;;;;;;20.93;34.91;99004.01;104298;1104;78763;-64
2021/05/05 08:40:49;;;;;;;4.40;1.40;;;;;;;21.00;35.50;98996.23;104275;1105;78157;-66
2021/05/05 08:42:55;;;;;;;3.50;1.00;;;;;;;20.96;35.57;98997.91;104315;1104;78944;-67
2021/05/05 08:45:01;;;;;;;3.40;1.10;;;;;;;20.94;36.09;98998.21;104305;1099;77473;-68
2021/05/05 08:47:06;;;;;;;3.40;1.30;;;;;;;21.00;36.28;98996.23;104335;1104;78740;-68
2021/05/05 08:49:14;;;;;;;2.30;1.20;;;;;;;21.12;36.60;98997.48;104286;1104;77801;-68
2021/05/05 08:51:19;;;;;;;4.20;1.40;;;;;;;22.21;36.34;98991.92;104272;1104;78981;-75
2021/05/05 08:53:24;;;;;;;3.40;1.60;;;;;;;22.31;36.03;98995.32;104258;1104;78587;-67
2021/05/05 08:55:31;;;;;;;3.70;1.50;;;;;;;22.09;35.88;98994.30;104267;1104;77577;-68
2021/05/05 08:57:37;;;;;;;7.70;1.50;;;;;;;22.38;35.74;98983.94;104280;1104;78058;-67
2021/05/05 08:59:42;;;;;;;4.60;1.50;;;;;;;22.96;35.21;98980.73;104287;1104;77698;-67
2021/05/05 09:01:48;;;;;;;2.40;1.30;;;;;;;23.42;34.89;98964.94;104322;1099;76878;-68
2021/05/05 09:03:53;;;;;;;4.50;1.40;;;;;;;24.25;34.71;98961.67;104315;1098;78169;-59
2021/05/05 09:06:01;;;;;;;3.70;1.30;;;;;;;24.36;33.79;98973.27;104271;1104;77028;-62
2021/05/05 09:08:12;;;;;;;2.80;1.60;;;;;;;24.83;33.27;98967.08;104250;1104;79401;-64
2021/05/05 09:10:21;;;;;;;3.00;1.40;;;;;;;24.90;32.47;98966.63;104311;1099;78988;-63
2021/05/05 09:12:27;;;;;;;2.50;1.50;;;;;;;24.83;32.21;98980.89;104298;1104;78437;-61
2021/05/05 09:14:32;;;;;;;5.30;1.60;;;;;;;24.43;32.39;98968.94;104282;1104;78519;-69
2021/05/05 09:16:38;;;;;;;4.10;1.70;;;;;;;23.90;32.37;98988.12;104310;1104;77937;-71
2021/05/05 09:18:59;;;;;;;3.20;1.50;;;;;;;23.40;32.31;98981.77;104282;1104;78814;-69
2021/05/05 09:21:12;;;;;;;2.60;1.30;;;;;;;22.74;33.00;98976.70;104271;1097;78472;-73
2021/05/05 09:23:23;;;;;;;4.20;1.30;;;;;;;22.55;33.43;98967.66;104308;1104;77196;-66
2021/05/05 09:25:44;;;;;;;5.70;1.50;;;;;;;22.43;33.38;98978.34;104320;1098;78568;-61
2021/05/05 09:28:14;;;;;;;4.60;1.80;;;;;;;22.30;33.60;98968.12;104338;1098;79977;-61
2021/05/05 09:30:24;;;;;;;2.70;1.40;;;;;;;22.83;34.54;98957.55;104302;1104;77157;-61
2021/05/05 09:32:46;;;;;;;3.50;1.40;;;;;;;23.02;34.98;98960.23;104310;1097;77635;-61
2021/05/05 09:35:00;;;;;;;4.10;1.40;;;;;;;23.25;34.63;98956.44;104317;1104;78598;-62
2021/05/05 09:37:09;;;;;;;3.50;1.60;;;;;;;22.96;34.37;98961.45;104326;1104;78260;-60
2021/05/05 09:39:14;;;;;;;5.90;1.70;;;;;;;22.74;34.52;98960.18;104274;1104;77065;-61
2021/05/05 09:41:21;;;;;;;3.40;1.50;;;;;;;22.63;34.32;98956.02;104324;1104;77870;-61
2021/05/05 09:43:28;;;;;;;3.20;1.60;;;;;;;22.05;34.10;98961.09;104294;1104;79083;-61
2021/05/05 09:45:35;;;;;;;3.60;1.10;;;;;;;21.84;34.91;98950.67;104311;1104;78861;-70
2021/05/05 09:47:51;;;;;;;7.50;1.40;;;;;;;21.56;35.01;98960.69;104313;1104;77061;-70
2021/05/05 09:49:59;;;;;;;2.60;1.40;;;;;;;21.10;35.08;98963.19;104340;1104;77249;-61
2021/05/05 09:52:08;;;;;;;3.00;1.80;;;;;;;20.53;35.58;98955.81;104270;1105;77679;-61
2021/05/05 09:54:23;;;;;;;3.20;1.50;;;;;;;20.25;36.21;98953.88;104296;1104;79252;-61
2021/05/05 09:56:32;;;;;;;4.50;1.80;;;;;;;19.87;37.00;98956.34;104334;1104;77634;-61